বাংলা English Search

Light to moderate rain/ thunder showers accompanied by temporary gusty wind is likely to occur at a few places over Rangpur, Mymensingh, Khulna, Barishal, Chattogram & Sylhet divisions and at one or two places over Dhaka & Rajshahi divisions with moderately heavy falls at places over the country .

METAR

METAR VGHS 242200Z 09005KT 3500 HZ SCT012 BKN100 28/24 Q1002 NOSIG=